sensor_id;sensor_type;location;lat;lon;timestamp;temperature;humidity
4787;DHT22;62338;48.832;9.422;2022-12-01T00:00:24;1.80;99.90
4787;DHT22;62338;48.832;9.422;2022-12-01T00:02:28;1.80;99.90
4787;DHT22;62338;48.832;9.422;2022-12-01T00:04:30;1.80;99.90
4787;DHT22;62338;48.832;9.422;2022-12-01T00:06:31;1.70;99.90
4787;DHT22;62338;48.832;9.422;2022-12-01T00:08:33;1.70;99.90
4787;DHT22;62338;48.832;9.422;2022-12-01T00:10:35;1.80;99.90
4787;DHT22;62338;48.832;9.422;2022-12-01T00:12:37;1.80;99.90
4787;DHT22;62338;48.832;9.422;2022-12-01T00:14:43;1.70;99.90
4787;DHT22;62338;48.832;9.422;2022-12-01T00:16:55;1.70;99.90
4787;DHT22;62338;48.832;9.422;2022-12-01T00:18:57;1.70;99.90
4787;DHT22;62338;48.832;9.422;2022-12-01T00:20:59;1.80;99.90
4787;DHT22;62338;48.832;9.422;2022-12-01T00:23:01;1.80;99.90
4787;DHT22;62338;48.832;9.422;2022-12-01T00:25:03;1.70;99.90
4787;DHT22;62338;48.832;9.422;2022-12-01T00:27:05;1.70;99.90
4787;DHT22;62338;48.832;9.422;2022-12-01T00:29:07;1.70;99.90
4787;DHT22;62338;48.832;9.422;2022-12-01T00:31:10;1.70;99.90
4787;DHT22;62338;48.832;9.422;2022-12-01T00:33:12;1.70;99.90
4787;DHT22;62338;48.832;9.422;2022-12-01T00:35:15;1.70;99.90
4787;DHT22;62338;48.832;9.422;2022-12-01T00:37:17;1.70;99.90
4787;DHT22;62338;48.832;9.422;2022-12-01T00:39:19;1.70;99.90
4787;DHT22;62338;48.832;9.422;2022-12-01T00:41:23;1.70;99.90
4787;DHT22;62338;48.832;9.422;2022-12-01T00:43:25;1.70;99.90
4787;DHT22;62338;48.832;9.422;2022-12-01T00:45:27;1.70;99.90
4787;DHT22;62338;48.832;9.422;2022-12-01T00:47:28;1.70;99.90
4787;DHT22;62338;48.832;9.422;2022-12-01T00:49:30;1.70;99.90
4787;DHT22;62338;48.832;9.422;2022-12-01T00:51:32;1.70;99.90
4787;DHT22;62338;48.832;9.422;2022-12-01T00:53:34;1.70;99.90
4787;DHT22;62338;48.832;9.422;2022-12-01T00:55:35;1.70;99.90
4787;DHT22;62338;48.832;9.422;2022-12-01T00:57:37;1.70;99.90
4787;DHT22;62338;48.832;9.422;2022-12-01T00:59:39;1.70;99.90
4787;DHT22;62338;48.832;9.422;2022-12-01T01:01:40;1.70;99.90
4787;DHT22;62338;48.832;9.422;2022-12-01T01:03:42;1.60;99.90
4787;DHT22;62338;48.832;9.422;2022-12-01T01:05:44;1.60;99.90
4787;DHT22;62338;48.832;9.422;2022-12-01T01:07:46;1.60;99.90
4787;DHT22;62338;48.832;9.422;2022-12-01T01:09:47;1.60;99.90
4787;DHT22;62338;48.832;9.422;2022-12-01T01:11:49;1.60;99.90
4787;DHT22;62338;48.832;9.422;2022-12-01T01:13:51;1.60;99.90
4787;DHT22;62338;48.832;9.422;2022-12-01T01:16:20;1.50;99.90
4787;DHT22;62338;48.832;9.422;2022-12-01T01:18:22;1.50;99.90
4787;DHT22;62338;48.832;9.422;2022-12-01T01:20:23;1.50;99.90
4787;DHT22;62338;48.832;9.422;2022-12-01T01:22:25;1.50;99.90
4787;DHT22;62338;48.832;9.422;2022-12-01T01:24:27;1.50;99.90
4787;DHT22;62338;48.832;9.422;2022-12-01T01:26:30;1.50;99.90
4787;DHT22;62338;48.832;9.422;2022-12-01T01:28:32;1.50;99.90
4787;DHT22;62338;48.832;9.422;2022-12-01T01:30:34;1.50;99.90
4787;DHT22;62338;48.832;9.422;2022-12-01T01:32:35;1.50;99.90
4787;DHT22;62338;48.832;9.422;2022-12-01T01:34:37;1.60;99.90
4787;DHT22;62338;48.832;9.422;2022-12-01T01:36:39;1.60;99.90
4787;DHT22;62338;48.832;9.422;2022-12-01T01:38:41;1.60;99.90
4787;DHT22;62338;48.832;9.422;2022-12-01T01:40:46;1.60;99.90
4787;DHT22;62338;48.832;9.422;2022-12-01T01:42:48;1.50;99.90
4787;DHT22;62338;48.832;9.422;2022-12-01T01:44:54;1.50;99.90
4787;DHT22;62338;48.832;9.422;2022-12-01T01:46:57;1.50;99.90
4787;DHT22;62338;48.832;9.422;2022-12-01T01:49:10;1.50;99.90
4787;DHT22;62338;48.832;9.422;2022-12-01T01:51:17;1.50;99.90
4787;DHT22;62338;48.832;9.422;2022-12-01T01:53:20;1.50;99.90
4787;DHT22;62338;48.832;9.422;2022-12-01T01:55:22;1.60;99.90
4787;DHT22;62338;48.832;9.422;2022-12-01T01:57:28;1.60;99.90
4787;DHT22;62338;48.832;9.422;2022-12-01T01:59:37;1.50;99.90
4787;DHT22;62338;48.832;9.422;2022-12-01T02:01:40;1.50;99.90
4787;DHT22;62338;48.832;9.422;2022-12-01T02:03:42;1.50;99.90
4787;DHT22;62338;48.832;9.422;2022-12-01T02:05:44;1.50;99.90
4787;DHT22;62338;48.832;9.422;2022-12-01T02:07:47;1.50;99.90
4787;DHT22;62338;48.832;9.422;2022-12-01T02:09:49;1.50;99.90
4787;DHT22;62338;48.832;9.422;2022-12-01T02:11:55;1.50;99.90
4787;DHT22;62338;48.832;9.422;2022-12-01T02:15:02;1.50;99.90
4787;DHT22;62338;48.832;9.422;2022-12-01T02:30:57;1.50;99.90
4787;DHT22;62338;48.832;9.422;2022-12-01T02:33:23;1.50;99.90
4787;DHT22;62338;48.832;9.422;2022-12-01T02:35:41;1.50;99.90
4787;DHT22;62338;48.832;9.422;2022-12-01T02:40:25;1.50;99.90
4787;DHT22;62338;48.832;9.422;2022-12-01T02:44:51;1.40;99.90
4787;DHT22;62338;48.832;9.422;2022-12-01T02:49:05;1.40;99.90
4787;DHT22;62338;48.832;9.422;2022-12-01T02:51:18;1.30;99.90
4787;DHT22;62338;48.832;9.422;2022-12-01T02:53:21;1.30;99.90
4787;DHT22;62338;48.832;9.422;2022-12-01T02:55:23;1.30;99.90
4787;DHT22;62338;48.832;9.422;2022-12-01T02:57:24;1.20;99.90
4787;DHT22;62338;48.832;9.422;2022-12-01T02:59:26;1.20;99.90
4787;DHT22;62338;48.832;9.422;2022-12-01T03:03:39;1.20;99.90
4787;DHT22;62338;48.832;9.422;2022-12-01T03:05:51;1.20;99.90
4787;DHT22;62338;48.832;9.422;2022-12-01T03:08:13;1.20;99.90
4787;DHT22;62338;48.832;9.422;2022-12-01T03:10:47;1.30;99.90
4787;DHT22;62338;48.832;9.422;2022-12-01T03:15:35;1.20;99.90
4787;DHT22;62338;48.832;9.422;2022-12-01T03:17:48;1.20;99.90
4787;DHT22;62338;48.832;9.422;2022-12-01T03:19:59;1.20;99.90
4787;DHT22;62338;48.832;9.422;2022-12-01T03:22:11;1.20;99.90
4787;DHT22;62338;48.832;9.422;2022-12-01T03:24:18;1.20;99.90
4787;DHT22;62338;48.832;9.422;2022-12-01T03:26:21;1.10;99.90
4787;DHT22;62338;48.832;9.422;2022-12-01T03:28:31;1.10;99.90
4787;DHT22;62338;48.832;9.422;2022-12-01T03:30:34;1.10;99.90
4787;DHT22;62338;48.832;9.422;2022-12-01T03:32:46;1.10;99.90
4787;DHT22;62338;48.832;9.422;2022-12-01T03:34:56;1.10;99.90
4787;DHT22;62338;48.832;9.422;2022-12-01T03:37:08;1.10;99.90
4787;DHT22;62338;48.832;9.422;2022-12-01T03:39:19;1.00;99.90
4787;DHT22;62338;48.832;9.422;2022-12-01T03:41:26;1.00;99.90
4787;DHT22;62338;48.832;9.422;2022-12-01T03:43:32;1.00;99.90
4787;DHT22;62338;48.832;9.422;2022-12-01T03:45:54;1.00;99.90
4787;DHT22;62338;48.832;9.422;2022-12-01T03:47:59;1.00;99.90
4787;DHT22;62338;48.832;9.422;2022-12-01T03:50:02;1.00;99.90
4787;DHT22;62338;48.832;9.422;2022-12-01T03:52:10;1.00;99.90
4787;DHT22;62338;48.832;9.422;2022-12-01T03:54:36;1.00;99.90
4787;DHT22;62338;48.832;9.422;2022-12-01T03:56:50;1.00;99.90
4787;DHT22;62338;48.832;9.422;2022-12-01T03:58:56;1.00;99.90
4787;DHT22;62338;48.832;9.422;2022-12-01T04:01:01;1.00;99.90
4787;DHT22;62338;48.832;9.422;2022-12-01T04:03:03;1.10;99.90
4787;DHT22;62338;48.832;9.422;2022-12-01T04:05:06;1.10;99.90
4787;DHT22;62338;48.832;9.422;2022-12-01T04:07:10;1.00;99.90
4787;DHT22;62338;48.832;9.422;2022-12-01T04:09:14;1.00;99.90
4787;DHT22;62338;48.832;9.422;2022-12-01T04:11:15;1.10;99.90
4787;DHT22;62338;48.832;9.422;2022-12-01T04:13:36;1.10;99.90
4787;DHT22;62338;48.832;9.422;2022-12-01T04:15:38;1.10;99.90
4787;DHT22;62338;48.832;9.422;2022-12-01T04:17:41;1.10;99.90
4787;DHT22;62338;48.832;9.422;2022-12-01T04:19:46;1.10;99.90
4787;DHT22;62338;48.832;9.422;2022-12-01T04:21:48;1.10;99.90
4787;DHT22;62338;48.832;9.422;2022-12-01T04:23:50;1.10;99.90
4787;DHT22;62338;48.832;9.422;2022-12-01T04:26:03;1.20;99.90
4787;DHT22;62338;48.832;9.422;2022-12-01T04:28:05;1.20;99.90
4787;DHT22;62338;48.832;9.422;2022-12-01T04:30:07;1.10;99.90
4787;DHT22;62338;48.832;9.422;2022-12-01T04:32:09;1.20;99.90
4787;DHT22;62338;48.832;9.422;2022-12-01T04:34:10;1.10;99.90
4787;DHT22;62338;48.832;9.422;2022-12-01T04:36:12;1.10;99.90
4787;DHT22;62338;48.832;9.422;2022-12-01T04:38:14;1.10;99.90
4787;DHT22;62338;48.832;9.422;2022-12-01T04:40:16;1.10;99.90
4787;DHT22;62338;48.832;9.422;2022-12-01T04:42:19;1.10;99.90
4787;DHT22;62338;48.832;9.422;2022-12-01T04:44:21;1.10;99.90
4787;DHT22;62338;48.832;9.422;2022-12-01T04:46:23;1.10;99.90
4787;DHT22;62338;48.832;9.422;2022-12-01T04:48:25;1.10;99.90
4787;DHT22;62338;48.832;9.422;2022-12-01T04:50:27;1.10;99.90
4787;DHT22;62338;48.832;9.422;2022-12-01T04:52:29;1.10;99.90
4787;DHT22;62338;48.832;9.422;2022-12-01T04:54:35;1.20;99.90
4787;DHT22;62338;48.832;9.422;2022-12-01T04:56:37;1.20;99.90
4787;DHT22;62338;48.832;9.422;2022-12-01T04:58:39;1.20;99.90
4787;DHT22;62338;48.832;9.422;2022-12-01T05:00:41;1.20;99.90
4787;DHT22;62338;48.832;9.422;2022-12-01T05:02:43;1.30;99.90
4787;DHT22;62338;48.832;9.422;2022-12-01T05:04:45;1.20;99.90
4787;DHT22;62338;48.832;9.422;2022-12-01T05:06:48;1.20;99.90
4787;DHT22;62338;48.832;9.422;2022-12-01T05:08:54;1.30;99.90
4787;DHT22;62338;48.832;9.422;2022-12-01T05:10:56;1.20;99.90
4787;DHT22;62338;48.832;9.422;2022-12-01T05:12:58;1.20;99.90
4787;DHT22;62338;48.832;9.422;2022-12-01T05:15:00;1.20;99.90
4787;DHT22;62338;48.832;9.422;2022-12-01T05:17:02;1.20;99.90
4787;DHT22;62338;48.832;9.422;2022-12-01T05:19:05;1.20;99.90
4787;DHT22;62338;48.832;9.422;2022-12-01T05:21:25;1.10;99.90
4787;DHT22;62338;48.832;9.422;2022-12-01T05:23:29;1.10;99.90
4787;DHT22;62338;48.832;9.422;2022-12-01T05:25:31;1.20;99.90
4787;DHT22;62338;48.832;9.422;2022-12-01T05:27:33;1.20;99.90
4787;DHT22;62338;48.832;9.422;2022-12-01T05:29:35;1.20;99.90
4787;DHT22;62338;48.832;9.422;2022-12-01T05:31:37;1.20;99.90
4787;DHT22;62338;48.832;9.422;2022-12-01T05:33:40;1.10;99.90
4787;DHT22;62338;48.832;9.422;2022-12-01T05:35:42;1.10;99.90
4787;DHT22;62338;48.832;9.422;2022-12-01T05:37:44;1.10;99.90
4787;DHT22;62338;48.832;9.422;2022-12-01T05:39:45;1.20;99.90
4787;DHT22;62338;48.832;9.422;2022-12-01T05:41:47;1.10;99.90
4787;DHT22;62338;48.832;9.422;2022-12-01T05:43:49;1.20;99.90
4787;DHT22;62338;48.832;9.422;2022-12-01T05:45:52;1.10;99.90
4787;DHT22;62338;48.832;9.422;2022-12-01T05:47:55;1.20;99.90
4787;DHT22;62338;48.832;9.422;2022-12-01T05:49:57;1.20;99.90
4787;DHT22;62338;48.832;9.422;2022-12-01T05:52:06;1.10;99.90
4787;DHT22;62338;48.832;9.422;2022-12-01T05:54:07;1.10;99.90
4787;DHT22;62338;48.832;9.422;2022-12-01T05:56:09;1.10;99.90
4787;DHT22;62338;48.832;9.422;2022-12-01T05:58:12;1.10;99.90
4787;DHT22;62338;48.832;9.422;2022-12-01T06:00:14;1.10;99.90
4787;DHT22;62338;48.832;9.422;2022-12-01T06:02:16;1.10;99.90
4787;DHT22;62338;48.832;9.422;2022-12-01T06:04:18;1.00;99.90
4787;DHT22;62338;48.832;9.422;2022-12-01T06:06:19;1.00;99.90
4787;DHT22;62338;48.832;9.422;2022-12-01T06:08:21;1.00;99.90
4787;DHT22;62338;48.832;9.422;2022-12-01T06:10:25;1.00;99.90
4787;DHT22;62338;48.832;9.422;2022-12-01T06:12:30;1.00;99.90
4787;DHT22;62338;48.832;9.422;2022-12-01T06:14:31;1.00;99.90
4787;DHT22;62338;48.832;9.422;2022-12-01T06:16:33;1.10;99.90
4787;DHT22;62338;48.832;9.422;2022-12-01T06:18:36;1.10;99.90
4787;DHT22;62338;48.832;9.422;2022-12-01T06:20:38;1.00;99.90
4787;DHT22;62338;48.832;9.422;2022-12-01T06:22:40;1.00;99.90
4787;DHT22;62338;48.832;9.422;2022-12-01T06:24:42;1.00;99.90
4787;DHT22;62338;48.832;9.422;2022-12-01T06:26:43;1.00;99.90
4787;DHT22;62338;48.832;9.422;2022-12-01T06:28:45;1.10;99.90
4787;DHT22;62338;48.832;9.422;2022-12-01T06:30:47;1.10;99.90
4787;DHT22;62338;48.832;9.422;2022-12-01T06:32:49;1.10;99.90
4787;DHT22;62338;48.832;9.422;2022-12-01T06:34:50;1.00;99.90
4787;DHT22;62338;48.832;9.422;2022-12-01T06:36:52;1.10;99.90
4787;DHT22;62338;48.832;9.422;2022-12-01T06:38:53;1.00;99.90
4787;DHT22;62338;48.832;9.422;2022-12-01T06:40:55;1.00;99.90
4787;DHT22;62338;48.832;9.422;2022-12-01T06:43:01;1.00;99.90
4787;DHT22;62338;48.832;9.422;2022-12-01T06:45:03;1.00;99.90
4787;DHT22;62338;48.832;9.422;2022-12-01T06:47:05;1.10;99.90
4787;DHT22;62338;48.832;9.422;2022-12-01T06:49:12;1.10;99.90
4787;DHT22;62338;48.832;9.422;2022-12-01T06:51:14;1.10;99.90
4787;DHT22;62338;48.832;9.422;2022-12-01T06:53:15;1.10;99.90
4787;DHT22;62338;48.832;9.422;2022-12-01T06:55:17;1.10;99.90
4787;DHT22;62338;48.832;9.422;2022-12-01T06:57:19;1.10;99.90
4787;DHT22;62338;48.832;9.422;2022-12-01T06:59:21;1.10;99.90
4787;DHT22;62338;48.832;9.422;2022-12-01T07:01:24;1.20;99.90
4787;DHT22;62338;48.832;9.422;2022-12-01T07:03:26;1.20;99.90
4787;DHT22;62338;48.832;9.422;2022-12-01T07:05:28;1.30;99.90
4787;DHT22;62338;48.832;9.422;2022-12-01T07:07:29;1.30;99.90
4787;DHT22;62338;48.832;9.422;2022-12-01T07:09:31;1.30;99.90
4787;DHT22;62338;48.832;9.422;2022-12-01T07:11:33;1.40;99.90
4787;DHT22;62338;48.832;9.422;2022-12-01T07:13:37;1.40;99.90
4787;DHT22;62338;48.832;9.422;2022-12-01T07:15:39;1.40;99.90
4787;DHT22;62338;48.832;9.422;2022-12-01T07:17:41;1.40;99.90
4787;DHT22;62338;48.832;9.422;2022-12-01T07:19:43;1.40;99.90
4787;DHT22;62338;48.832;9.422;2022-12-01T07:21:44;1.40;99.90
4787;DHT22;62338;48.832;9.422;2022-12-01T07:23:46;1.40;99.90
4787;DHT22;62338;48.832;9.422;2022-12-01T07:26:08;1.40;99.90
4787;DHT22;62338;48.832;9.422;2022-12-01T07:28:10;1.40;99.90
4787;DHT22;62338;48.832;9.422;2022-12-01T07:30:12;1.50;99.90
4787;DHT22;62338;48.832;9.422;2022-12-01T07:32:14;1.50;99.90
4787;DHT22;62338;48.832;9.422;2022-12-01T07:34:16;1.50;99.90
4787;DHT22;62338;48.832;9.422;2022-12-01T07:36:18;1.50;99.90
4787;DHT22;62338;48.832;9.422;2022-12-01T07:38:19;1.50;99.90
4787;DHT22;62338;48.832;9.422;2022-12-01T07:40:23;1.50;99.90
4787;DHT22;62338;48.832;9.422;2022-12-01T07:42:24;1.60;99.90
4787;DHT22;62338;48.832;9.422;2022-12-01T07:44:26;1.60;99.90
4787;DHT22;62338;48.832;9.422;2022-12-01T07:46:28;1.60;99.90
4787;DHT22;62338;48.832;9.422;2022-12-01T07:48:30;1.60;99.90
4787;DHT22;62338;48.832;9.422;2022-12-01T07:50:31;1.70;99.90
4787;DHT22;62338;48.832;9.422;2022-12-01T07:52:33;1.60;99.90
4787;DHT22;62338;48.832;9.422;2022-12-01T07:54:35;1.60;99.90
4787;DHT22;62338;48.832;9.422;2022-12-01T07:56:37;1.60;99.90
4787;DHT22;62338;48.832;9.422;2022-12-01T07:58:38;1.60;99.90
4787;DHT22;62338;48.832;9.422;2022-12-01T08:00:40;1.60;99.90
4787;DHT22;62338;48.832;9.422;2022-12-01T08:02:42;1.60;99.90
4787;DHT22;62338;48.832;9.422;2022-12-01T08:04:44;1.60;99.90
4787;DHT22;62338;48.832;9.422;2022-12-01T08:06:46;1.50;99.90
4787;DHT22;62338;48.832;9.422;2022-12-01T08:08:48;1.50;99.90
4787;DHT22;62338;48.832;9.422;2022-12-01T08:10:50;1.60;99.90
4787;DHT22;62338;48.832;9.422;2022-12-01T08:12:52;1.60;99.90
4787;DHT22;62338;48.832;9.422;2022-12-01T08:14:54;1.60;99.90
4787;DHT22;62338;48.832;9.422;2022-12-01T08:16:56;1.70;99.90
4787;DHT22;62338;48.832;9.422;2022-12-01T08:18:57;1.70;99.90
4787;DHT22;62338;48.832;9.422;2022-12-01T08:20:59;1.70;99.90
4787;DHT22;62338;48.832;9.422;2022-12-01T08:23:02;1.80;99.90
4787;DHT22;62338;48.832;9.422;2022-12-01T08:25:04;1.80;99.90
4787;DHT22;62338;48.832;9.422;2022-12-01T08:27:06;1.80;99.90
4787;DHT22;62338;48.832;9.422;2022-12-01T08:29:08;1.80;99.90
4787;DHT22;62338;48.832;9.422;2022-12-01T08:33:11;1.90;99.90
4787;DHT22;62338;48.832;9.422;2022-12-01T08:35:13;1.90;99.90
4787;DHT22;62338;48.832;9.422;2022-12-01T08:37:15;1.90;99.90
4787;DHT22;62338;48.832;9.422;2022-12-01T08:39:17;1.90;99.90
4787;DHT22;62338;48.832;9.422;2022-12-01T08:41:19;1.80;99.90
4787;DHT22;62338;48.832;9.422;2022-12-01T08:43:21;1.80;99.90
4787;DHT22;62338;48.832;9.422;2022-12-01T08:45:43;1.80;99.90
4787;DHT22;62338;48.832;9.422;2022-12-01T08:47:45;1.80;99.90
4787;DHT22;62338;48.832;9.422;2022-12-01T08:49:48;1.70;99.90
4787;DHT22;62338;48.832;9.422;2022-12-01T08:51:50;1.70;99.90
4787;DHT22;62338;48.832;9.422;2022-12-01T08:53:53;1.80;99.90
4787;DHT22;62338;48.832;9.422;2022-12-01T08:55:59;1.70;99.90
4787;DHT22;62338;48.832;9.422;2022-12-01T08:58:01;1.80;99.90
4787;DHT22;62338;48.832;9.422;2022-12-01T09:00:03;1.80;99.90
4787;DHT22;62338;48.832;9.422;2022-12-01T09:02:08;1.80;99.90
4787;DHT22;62338;48.832;9.422;2022-12-01T09:04:11;1.90;99.90
4787;DHT22;62338;48.832;9.422;2022-12-01T09:06:15;2.00;99.90
4787;DHT22;62338;48.832;9.422;2022-12-01T09:08:17;2.00;99.90
4787;DHT22;62338;48.832;9.422;2022-12-01T09:10:35;2.00;99.90
4787;DHT22;62338;48.832;9.422;2022-12-01T09:12:37;2.10;99.90
4787;DHT22;62338;48.832;9.422;2022-12-01T09:14:41;2.10;99.90
4787;DHT22;62338;48.832;9.422;2022-12-01T09:16:44;2.10;99.90
4787;DHT22;62338;48.832;9.422;2022-12-01T09:18:47;2.10;99.90
4787;DHT22;62338;48.832;9.422;2022-12-01T09:20:49;2.10;99.90
4787;DHT22;62338;48.832;9.422;2022-12-01T09:22:51;2.10;99.90
4787;DHT22;62338;48.832;9.422;2022-12-01T09:24:52;2.20;99.90
4787;DHT22;62338;48.832;9.422;2022-12-01T09:26:58;2.20;99.90
4787;DHT22;62338;48.832;9.422;2022-12-01T09:29:03;2.20;99.90
4787;DHT22;62338;48.832;9.422;2022-12-01T09:31:06;2.20;99.90
4787;DHT22;62338;48.832;9.422;2022-12-01T09:33:09;2.20;99.90
4787;DHT22;62338;48.832;9.422;2022-12-01T09:35:11;2.20;99.90
4787;DHT22;62338;48.832;9.422;2022-12-01T09:37:13;2.30;99.90
4787;DHT22;62338;48.832;9.422;2022-12-01T09:39:16;2.30;99.90
4787;DHT22;62338;48.832;9.422;2022-12-01T09:41:38;2.40;99.90
4787;DHT22;62338;48.832;9.422;2022-12-01T09:43:45;2.40;99.90
4787;DHT22;62338;48.832;9.422;2022-12-01T09:45:53;2.50;99.90
4787;DHT22;62338;48.832;9.422;2022-12-01T09:47:59;2.50;99.90
4787;DHT22;62338;48.832;9.422;2022-12-01T09:50:03;2.50;99.90
4787;DHT22;62338;48.832;9.422;2022-12-01T09:52:10;2.60;99.90
4787;DHT22;62338;48.832;9.422;2022-12-01T09:54:13;2.60;99.90
4787;DHT22;62338;48.832;9.422;2022-12-01T09:58:27;2.50;99.90
4787;DHT22;62338;48.832;9.422;2022-12-01T10:00:32;2.50;99.90
4787;DHT22;62338;48.832;9.422;2022-12-01T10:02:43;2.60;99.90
4787;DHT22;62338;48.832;9.422;2022-12-01T10:04:48;2.70;99.90
4787;DHT22;62338;48.832;9.422;2022-12-01T10:07:00;2.70;99.90
4787;DHT22;62338;48.832;9.422;2022-12-01T10:11:35;2.70;99.90
4787;DHT22;62338;48.832;9.422;2022-12-01T10:13:37;2.70;99.90
4787;DHT22;62338;48.832;9.422;2022-12-01T10:20:13;2.80;99.20
4787;DHT22;62338;48.832;9.422;2022-12-01T10:22:30;2.90;81.40
4787;DHT22;62338;48.832;9.422;2022-12-01T10:24:53;2.90;69.30
4787;DHT22;62338;48.832;9.422;2022-12-01T10:32:03;3.00;26.70
4787;DHT22;62338;48.832;9.422;2022-12-01T10:34:28;3.00;52.10
4787;DHT22;62338;48.832;9.422;2022-12-01T10:36:32;3.00;67.70
4787;DHT22;62338;48.832;9.422;2022-12-01T10:38:36;3.00;46.50
4787;DHT22;62338;48.832;9.422;2022-12-01T10:40:39;3.10;49.00
4787;DHT22;62338;48.832;9.422;2022-12-01T10:42:44;3.10;63.20
4787;DHT22;62338;48.832;9.422;2022-12-01T10:44:47;3.10;54.20
4787;DHT22;62338;48.832;9.422;2022-12-01T10:46:52;3.10;20.10
4787;DHT22;62338;48.832;9.422;2022-12-01T10:48:57;3.00;25.30
4787;DHT22;62338;48.832;9.422;2022-12-01T10:51:14;3.00;51.60
4787;DHT22;62338;48.832;9.422;2022-12-01T10:53:29;3.00;37.20
4787;DHT22;62338;48.832;9.422;2022-12-01T10:55:35;3.10;51.00
4787;DHT22;62338;48.832;9.422;2022-12-01T10:57:38;3.10;27.10
4787;DHT22;62338;48.832;9.422;2022-12-01T11:00:24;3.10;54.20
4787;DHT22;62338;48.832;9.422;2022-12-01T11:02:38;3.20;43.80
4787;DHT22;62338;48.832;9.422;2022-12-01T11:04:52;3.30;36.70
4787;DHT22;62338;48.832;9.422;2022-12-01T11:06:54;3.40;13.00
4787;DHT22;62338;48.832;9.422;2022-12-01T11:08:59;3.40;1.00
4787;DHT22;62338;48.832;9.422;2022-12-01T11:11:01;3.50;6.50
4787;DHT22;62338;48.832;9.422;2022-12-01T11:13:22;3.40;1.00
4787;DHT22;62338;48.832;9.422;2022-12-01T11:15:28;3.40;1.00
4787;DHT22;62338;48.832;9.422;2022-12-01T11:17:38;3.40;1.00
4787;DHT22;62338;48.832;9.422;2022-12-01T11:19:41;3.40;1.00
4787;DHT22;62338;48.832;9.422;2022-12-01T11:21:51;3.50;9.00
4787;DHT22;62338;48.832;9.422;2022-12-01T11:23:54;3.50;25.10
4787;DHT22;62338;48.832;9.422;2022-12-01T11:26:24;3.50;3.90
4787;DHT22;62338;48.832;9.422;2022-12-01T11:28:27;3.60;1.00
4787;DHT22;62338;48.832;9.422;2022-12-01T11:30:30;3.60;1.00
4787;DHT22;62338;48.832;9.422;2022-12-01T11:32:36;3.60;1.00
4787;DHT22;62338;48.832;9.422;2022-12-01T11:34:39;3.50;1.00
4787;DHT22;62338;48.832;9.422;2022-12-01T11:36:46;3.60;1.00
4787;DHT22;62338;48.832;9.422;2022-12-01T11:38:53;3.60;1.00
4787;DHT22;62338;48.832;9.422;2022-12-01T11:40:56;3.70;1.00
4787;DHT22;62338;48.832;9.422;2022-12-01T11:43:00;3.70;1.00
4787;DHT22;62338;48.832;9.422;2022-12-01T11:50:25;3.70;1.00
4787;DHT22;62338;48.832;9.422;2022-12-01T11:52:35;3.70;1.00
4787;DHT22;62338;48.832;9.422;2022-12-01T11:57:10;3.80;1.00
4787;DHT22;62338;48.832;9.422;2022-12-01T11:59:31;3.90;1.00
4787;DHT22;62338;48.832;9.422;2022-12-01T12:02:10;4.00;1.00
4787;DHT22;62338;48.832;9.422;2022-12-01T12:06:32;3.90;1.00
4787;DHT22;62338;48.832;9.422;2022-12-01T12:13:56;3.80;1.00
4787;DHT22;62338;48.832;9.422;2022-12-01T12:18:40;4.00;1.00
4787;DHT22;62338;48.832;9.422;2022-12-01T12:23:24;3.90;1.00
4787;DHT22;62338;48.832;9.422;2022-12-01T12:28:03;3.90;1.00
4787;DHT22;62338;48.832;9.422;2022-12-01T12:32:33;3.90;1.00
4787;DHT22;62338;48.832;9.422;2022-12-01T12:37:25;4.00;1.00
4787;DHT22;62338;48.832;9.422;2022-12-01T12:41:55;4.00;1.00
4787;DHT22;62338;48.832;9.422;2022-12-01T12:46:26;4.00;1.00
4787;DHT22;62338;48.832;9.422;2022-12-01T12:48:53;4.00;1.00
4787;DHT22;62338;48.832;9.422;2022-12-01T12:51:31;4.10;1.00
4787;DHT22;62338;48.832;9.422;2022-12-01T12:53:44;4.10;1.00
4787;DHT22;62338;48.832;9.422;2022-12-01T12:55:50;4.10;1.00
4787;DHT22;62338;48.832;9.422;2022-12-01T13:00:21;3.90;1.00
4787;DHT22;62338;48.832;9.422;2022-12-01T13:02:43;3.80;1.00
4787;DHT22;62338;48.832;9.422;2022-12-01T13:04:55;3.80;1.00
4787;DHT22;62338;48.832;9.422;2022-12-01T13:07:52;3.90;1.00
4787;DHT22;62338;48.832;9.422;2022-12-01T13:09:49;4.00;1.00
4787;DHT22;62338;48.832;9.422;2022-12-01T13:12:27;4.00;1.00
4787;DHT22;62338;48.832;9.422;2022-12-01T13:14:40;4.00;1.00
4787;DHT22;62338;48.832;9.422;2022-12-01T13:16:45;3.90;1.00
4787;DHT22;62338;48.832;9.422;2022-12-01T13:19:13;3.90;1.00
4787;DHT22;62338;48.832;9.422;2022-12-01T13:21:18;3.90;1.00
4787;DHT22;62338;48.832;9.422;2022-12-01T13:23:22;3.80;1.00
4787;DHT22;62338;48.832;9.422;2022-12-01T13:25:36;3.80;1.00
4787;DHT22;62338;48.832;9.422;2022-12-01T13:27:41;3.70;1.00
4787;DHT22;62338;48.832;9.422;2022-12-01T13:29:51;3.70;1.00
4787;DHT22;62338;48.832;9.422;2022-12-01T13:31:54;3.70;1.00
4787;DHT22;62338;48.832;9.422;2022-12-01T13:33:57;3.70;1.00
4787;DHT22;62338;48.832;9.422;2022-12-01T13:35:59;3.60;1.00
4787;DHT22;62338;48.832;9.422;2022-12-01T13:40:30;3.70;10.00
4787;DHT22;62338;48.832;9.422;2022-12-01T13:42:32;3.60;18.50
4787;DHT22;62338;48.832;9.422;2022-12-01T13:44:40;3.60;23.10
4787;DHT22;62338;48.832;9.422;2022-12-01T13:51:01;3.50;7.90
4787;DHT22;62338;48.832;9.422;2022-12-01T13:53:28;3.40;23.30
4787;DHT22;62338;48.832;9.422;2022-12-01T13:55:30;3.50;33.70
4787;DHT22;62338;48.832;9.422;2022-12-01T14:00:03;3.50;23.80
4787;DHT22;62338;48.832;9.422;2022-12-01T14:02:18;3.50;26.30
4787;DHT22;62338;48.832;9.422;2022-12-01T14:04:26;3.50;26.50
4787;DHT22;62338;48.832;9.422;2022-12-01T14:06:37;3.50;39.30
4787;DHT22;62338;48.832;9.422;2022-12-01T14:08:48;3.50;44.50
4787;DHT22;62338;48.832;9.422;2022-12-01T14:11:04;3.40;43.60
4787;DHT22;62338;48.832;9.422;2022-12-01T14:13:17;3.40;64.30
4787;DHT22;62338;48.832;9.422;2022-12-01T14:17:36;3.40;51.70
4787;DHT22;62338;48.832;9.422;2022-12-01T14:19:47;3.40;76.60
4787;DHT22;62338;48.832;9.422;2022-12-01T14:21:52;3.50;90.40
4787;DHT22;62338;48.832;9.422;2022-12-01T14:24:02;3.50;95.20
4787;DHT22;62338;48.832;9.422;2022-12-01T14:26:12;3.50;63.60
4787;DHT22;62338;48.832;9.422;2022-12-01T14:28:16;3.50;66.70
4787;DHT22;62338;48.832;9.422;2022-12-01T14:32:41;3.50;89.40
4787;DHT22;62338;48.832;9.422;2022-12-01T14:34:43;3.50;91.70
4787;DHT22;62338;48.832;9.422;2022-12-01T14:37:15;3.50;99.90
4787;DHT22;62338;48.832;9.422;2022-12-01T14:41:51;3.50;99.90
4787;DHT22;62338;48.832;9.422;2022-12-01T14:44:10;3.40;99.90
4787;DHT22;62338;48.832;9.422;2022-12-01T14:46:18;3.40;99.90
4787;DHT22;62338;48.832;9.422;2022-12-01T14:48:25;3.40;99.90
4787;DHT22;62338;48.832;9.422;2022-12-01T14:50:51;3.40;99.90
4787;DHT22;62338;48.832;9.422;2022-12-01T14:53:03;3.40;99.90
4787;DHT22;62338;48.832;9.422;2022-12-01T14:55:15;3.30;99.90
4787;DHT22;62338;48.832;9.422;2022-12-01T14:57:23;3.30;99.90
4787;DHT22;62338;48.832;9.422;2022-12-01T14:59:26;3.20;99.90
4787;DHT22;62338;48.832;9.422;2022-12-01T15:01:31;3.20;99.90
4787;DHT22;62338;48.832;9.422;2022-12-01T15:03:56;3.20;99.90
4787;DHT22;62338;48.832;9.422;2022-12-01T15:05:58;3.20;99.90
4787;DHT22;62338;48.832;9.422;2022-12-01T15:08:19;3.10;99.90
4787;DHT22;62338;48.832;9.422;2022-12-01T15:10:53;3.20;99.90
4787;DHT22;62338;48.832;9.422;2022-12-01T15:12:55;3.10;99.90
4787;DHT22;62338;48.832;9.422;2022-12-01T15:14:57;3.10;99.90
4787;DHT22;62338;48.832;9.422;2022-12-01T15:17:00;3.10;99.90
4787;DHT22;62338;48.832;9.422;2022-12-01T15:19:41;3.10;99.90